sensor_id;sensor_type;location;lat;lon;timestamp;pressure;altitude;pressure_sealevel;temperature;humidity
69772;BME280;57046;45.988;18.664;2022-12-29T00:00:07;101440.41;;;1.77;87.65
69772;BME280;57046;45.988;18.664;2022-12-29T00:02:33;101434.75;;;1.73;87.47
69772;BME280;57046;45.988;18.664;2022-12-29T00:04:58;101426.97;;;1.72;87.57
69772;BME280;57046;45.988;18.664;2022-12-29T00:07:24;101425.00;;;1.67;87.80
69772;BME280;57046;45.988;18.664;2022-12-29T00:09:49;101426.75;;;1.73;87.77
69772;BME280;57046;45.988;18.664;2022-12-29T00:12:14;101429.28;;;1.68;88.25
69772;BME280;57046;45.988;18.664;2022-12-29T00:14:40;101421.66;;;1.72;88.27
69772;BME280;57046;45.988;18.664;2022-12-29T00:17:05;101425.47;;;1.64;88.46
69772;BME280;57046;45.988;18.664;2022-12-29T00:19:30;101435.91;;;1.66;88.46
69772;BME280;57046;45.988;18.664;2022-12-29T00:21:56;101423.78;;;1.58;88.44
69772;BME280;57046;45.988;18.664;2022-12-29T00:24:22;101421.94;;;1.47;88.90
69772;BME280;57046;45.988;18.664;2022-12-29T00:26:56;101425.88;;;1.56;88.94
69772;BME280;57046;45.988;18.664;2022-12-29T00:29:22;101427.25;;;1.59;89.18
69772;BME280;57046;45.988;18.664;2022-12-29T00:31:47;101425.06;;;1.56;89.89
69772;BME280;57046;45.988;18.664;2022-12-29T00:34:12;101429.31;;;1.57;89.55
69772;BME280;57046;45.988;18.664;2022-12-29T00:36:40;101419.97;;;1.54;88.92
69772;BME280;57046;45.988;18.664;2022-12-29T00:39:10;101417.16;;;1.61;88.51
69772;BME280;57046;45.988;18.664;2022-12-29T00:41:37;101429.47;;;1.50;89.02
69772;BME280;57046;45.988;18.664;2022-12-29T00:44:02;101416.16;;;1.50;88.34
69772;BME280;57046;45.988;18.664;2022-12-29T00:46:28;101415.91;;;1.51;88.52
69772;BME280;57046;45.988;18.664;2022-12-29T00:48:53;101438.13;;;1.57;88.27
69772;BME280;57046;45.988;18.664;2022-12-29T00:51:18;101421.03;;;1.53;88.30
69772;BME280;57046;45.988;18.664;2022-12-29T00:53:44;101426.34;;;1.53;88.70
69772;BME280;57046;45.988;18.664;2022-12-29T00:56:09;101413.41;;;1.45;88.79
69772;BME280;57046;45.988;18.664;2022-12-29T00:58:34;101422.06;;;1.52;88.74
69772;BME280;57046;45.988;18.664;2022-12-29T01:01:07;101432.47;;;1.53;88.95
69772;BME280;57046;45.988;18.664;2022-12-29T01:03:34;101432.00;;;1.57;88.62
69772;BME280;57046;45.988;18.664;2022-12-29T01:06:01;101425.19;;;1.49;88.60
69772;BME280;57046;45.988;18.664;2022-12-29T01:08:28;101405.97;;;1.47;88.55
69772;BME280;57046;45.988;18.664;2022-12-29T01:11:00;101406.66;;;1.54;89.45
69772;BME280;57046;45.988;18.664;2022-12-29T01:13:26;101411.28;;;1.47;89.56
69772;BME280;57046;45.988;18.664;2022-12-29T01:15:52;101408.63;;;1.47;90.75
69772;BME280;57046;45.988;18.664;2022-12-29T01:18:18;101404.22;;;1.52;89.94
69772;BME280;57046;45.988;18.664;2022-12-29T01:20:43;101407.94;;;1.51;90.21
69772;BME280;57046;45.988;18.664;2022-12-29T01:23:09;101409.09;;;1.56;89.89
69772;BME280;57046;45.988;18.664;2022-12-29T01:25:34;101396.94;;;1.48;90.55
69772;BME280;57046;45.988;18.664;2022-12-29T01:27:59;101406.41;;;1.56;89.97
69772;BME280;57046;45.988;18.664;2022-12-29T01:30:25;101410.13;;;1.54;90.08
69772;BME280;57046;45.988;18.664;2022-12-29T01:32:50;101405.75;;;1.48;90.26
69772;BME280;57046;45.988;18.664;2022-12-29T01:35:15;101408.75;;;1.52;90.25
69772;BME280;57046;45.988;18.664;2022-12-29T01:37:41;101387.09;;;1.48;90.09
69772;BME280;57046;45.988;18.664;2022-12-29T01:40:06;101405.50;;;1.50;90.47
69772;BME280;57046;45.988;18.664;2022-12-29T01:42:32;101393.28;;;1.37;90.64
69772;BME280;57046;45.988;18.664;2022-12-29T01:45:00;101400.78;;;1.40;90.43
69772;BME280;57046;45.988;18.664;2022-12-29T01:47:34;101397.41;;;1.45;90.47
69772;BME280;57046;45.988;18.664;2022-12-29T01:52:34;101382.97;;;1.41;89.94
69772;BME280;57046;45.988;18.664;2022-12-29T01:55:01;101378.31;;;1.36;90.45
69772;BME280;57046;45.988;18.664;2022-12-29T01:57:31;101376.00;;;1.40;89.82
69772;BME280;57046;45.988;18.664;2022-12-29T02:00:02;101378.66;;;1.40;89.77
69772;BME280;57046;45.988;18.664;2022-12-29T02:02:29;101379.97;;;1.37;90.32
69772;BME280;57046;45.988;18.664;2022-12-29T02:04:58;101365.53;;;1.22;91.05
69772;BME280;57046;45.988;18.664;2022-12-29T02:07:26;101379.41;;;1.35;90.69
69772;BME280;57046;45.988;18.664;2022-12-29T02:09:54;101371.41;;;1.35;91.27
69772;BME280;57046;45.988;18.664;2022-12-29T02:12:21;101368.97;;;1.34;90.76
69772;BME280;57046;45.988;18.664;2022-12-29T02:14:50;101374.88;;;1.36;90.77
69772;BME280;57046;45.988;18.664;2022-12-29T02:17:38;101362.69;;;1.40;91.19
69772;BME280;57046;45.988;18.664;2022-12-29T02:28:44;101354.34;;;1.48;91.01
69772;BME280;57046;45.988;18.664;2022-12-29T02:34:31;101338.50;;;1.41;91.72
69772;BME280;57046;45.988;18.664;2022-12-29T02:40:06;101351.34;;;1.44;91.46
69772;BME280;57046;45.988;18.664;2022-12-29T02:42:59;101354.22;;;1.43;91.17
69772;BME280;57046;45.988;18.664;2022-12-29T02:48:37;101341.72;;;1.43;90.37
69772;BME280;57046;45.988;18.664;2022-12-29T02:51:20;101344.31;;;1.38;90.35
69772;BME280;57046;45.988;18.664;2022-12-29T02:53:48;101326.84;;;1.31;90.39
69772;BME280;57046;45.988;18.664;2022-12-29T02:56:14;101329.28;;;1.32;90.07
69772;BME280;57046;45.988;18.664;2022-12-29T02:58:39;101338.66;;;1.35;90.03
69772;BME280;57046;45.988;18.664;2022-12-29T03:06:56;101334.75;;;1.26;90.60
69772;BME280;57046;45.988;18.664;2022-12-29T03:10:03;101333.81;;;1.32;90.52
69772;BME280;57046;45.988;18.664;2022-12-29T03:15:10;101327.53;;;1.38;90.06
69772;BME280;57046;45.988;18.664;2022-12-29T03:20:32;101318.50;;;1.39;89.63
69772;BME280;57046;45.988;18.664;2022-12-29T03:23:03;101310.41;;;1.34;89.79
69772;BME280;57046;45.988;18.664;2022-12-29T03:25:42;101320.56;;;1.37;89.52
69772;BME280;57046;45.988;18.664;2022-12-29T03:28:12;101320.00;;;1.35;89.25
69772;BME280;57046;45.988;18.664;2022-12-29T03:30:40;101292.38;;;1.24;89.82
69772;BME280;57046;45.988;18.664;2022-12-29T03:33:11;101308.78;;;1.33;89.96
69772;BME280;57046;45.988;18.664;2022-12-29T03:35:40;101304.84;;;1.35;89.41
69772;BME280;57046;45.988;18.664;2022-12-29T03:38:27;101308.06;;;1.37;89.55
69772;BME280;57046;45.988;18.664;2022-12-29T03:40:57;101292.63;;;1.23;89.97
69772;BME280;57046;45.988;18.664;2022-12-29T03:43:24;101298.03;;;1.28;90.06
69772;BME280;57046;45.988;18.664;2022-12-29T03:45:50;101316.22;;;1.31;89.89
69772;BME280;57046;45.988;18.664;2022-12-29T03:48:15;101291.97;;;1.16;89.50
69772;BME280;57046;45.988;18.664;2022-12-29T03:50:41;101303.25;;;1.23;89.64
69772;BME280;57046;45.988;18.664;2022-12-29T03:53:06;101306.72;;;1.23;89.79
69772;BME280;57046;45.988;18.664;2022-12-29T03:55:36;101304.06;;;1.23;89.53
69772;BME280;57046;45.988;18.664;2022-12-29T03:58:02;101292.53;;;1.18;89.26
69772;BME280;57046;45.988;18.664;2022-12-29T04:00:27;101300.84;;;1.21;89.02
69772;BME280;57046;45.988;18.664;2022-12-29T04:02:53;101284.00;;;1.16;89.30
69772;BME280;57046;45.988;18.664;2022-12-29T04:05:18;101298.41;;;1.20;89.84
69772;BME280;57046;45.988;18.664;2022-12-29T04:07:43;101298.34;;;1.15;90.46
69772;BME280;57046;45.988;18.664;2022-12-29T04:10:09;101297.75;;;1.13;90.51
69772;BME280;57046;45.988;18.664;2022-12-29T04:12:34;101296.97;;;1.12;90.59
69772;BME280;57046;45.988;18.664;2022-12-29T04:14:59;101311.25;;;1.23;89.85
69772;BME280;57046;45.988;18.664;2022-12-29T04:17:25;101313.91;;;1.23;89.91
69772;BME280;57046;45.988;18.664;2022-12-29T04:19:50;101317.84;;;1.20;90.13
69772;BME280;57046;45.988;18.664;2022-12-29T04:22:15;101316.72;;;1.16;90.84
69772;BME280;57046;45.988;18.664;2022-12-29T04:24:41;101302.16;;;1.19;90.13
69772;BME280;57046;45.988;18.664;2022-12-29T04:27:06;101305.59;;;1.19;90.52
69772;BME280;57046;45.988;18.664;2022-12-29T04:29:31;101308.50;;;1.18;90.35
69772;BME280;57046;45.988;18.664;2022-12-29T04:31:57;101316.22;;;1.19;91.79
69772;BME280;57046;45.988;18.664;2022-12-29T04:34:22;101306.06;;;1.16;91.08
69772;BME280;57046;45.988;18.664;2022-12-29T04:36:48;101313.56;;;1.19;91.02
69772;BME280;57046;45.988;18.664;2022-12-29T04:39:13;101316.47;;;1.18;91.35
69772;BME280;57046;45.988;18.664;2022-12-29T04:41:38;101326.09;;;1.19;91.00
69772;BME280;57046;45.988;18.664;2022-12-29T04:44:04;101321.56;;;1.19;90.89
69772;BME280;57046;45.988;18.664;2022-12-29T04:46:29;101289.94;;;0.94;91.64
69772;BME280;57046;45.988;18.664;2022-12-29T04:48:54;101326.69;;;1.09;92.19
69772;BME280;57046;45.988;18.664;2022-12-29T04:51:20;101326.22;;;1.12;92.10
69772;BME280;57046;45.988;18.664;2022-12-29T04:53:45;101336.63;;;1.14;91.69
69772;BME280;57046;45.988;18.664;2022-12-29T04:56:11;101332.72;;;1.05;93.25
69772;BME280;57046;45.988;18.664;2022-12-29T04:58:36;101332.72;;;1.05;94.17
69772;BME280;57046;45.988;18.664;2022-12-29T05:01:02;101339.09;;;1.03;93.11
69772;BME280;57046;45.988;18.664;2022-12-29T05:03:27;101331.22;;;1.09;93.47
69772;BME280;57046;45.988;18.664;2022-12-29T05:05:57;101336.41;;;1.03;94.10
69772;BME280;57046;45.988;18.664;2022-12-29T05:08:23;101328.56;;;1.09;94.12
69772;BME280;57046;45.988;18.664;2022-12-29T05:10:51;101301.19;;;0.85;93.47
69772;BME280;57046;45.988;18.664;2022-12-29T05:13:17;101325.91;;;1.09;93.73
69772;BME280;57046;45.988;18.664;2022-12-29T05:15:52;101332.34;;;1.13;92.91
69772;BME280;57046;45.988;18.664;2022-12-29T05:18:18;101333.63;;;1.10;92.27
69772;BME280;57046;45.988;18.664;2022-12-29T05:20:45;101327.75;;;1.08;92.53
69772;BME280;57046;45.988;18.664;2022-12-29T05:23:10;101322.06;;;1.05;92.50
69772;BME280;57046;45.988;18.664;2022-12-29T05:25:36;101327.75;;;1.08;92.62
69772;BME280;57046;45.988;18.664;2022-12-29T05:28:01;101321.81;;;1.06;93.36
69772;BME280;57046;45.988;18.664;2022-12-29T05:30:27;101313.03;;;1.06;93.09
69772;BME280;57046;45.988;18.664;2022-12-29T05:32:52;101327.41;;;1.05;93.39
69772;BME280;57046;45.988;18.664;2022-12-29T05:35:17;101330.16;;;1.10;92.15
69772;BME280;57046;45.988;18.664;2022-12-29T05:37:43;101303.00;;;0.96;92.99
69772;BME280;57046;45.988;18.664;2022-12-29T05:40:08;101324.16;;;1.02;92.08
69772;BME280;57046;45.988;18.664;2022-12-29T05:42:34;101327.41;;;1.05;92.05
69772;BME280;57046;45.988;18.664;2022-12-29T05:44:59;101320.56;;;1.09;91.58
69772;BME280;57046;45.988;18.664;2022-12-29T05:47:25;101321.81;;;1.06;91.05
69772;BME280;57046;45.988;18.664;2022-12-29T05:49:50;101323.94;;;1.04;91.22
69772;BME280;57046;45.988;18.664;2022-12-29T05:52:15;101313.28;;;1.04;91.62
69772;BME280;57046;45.988;18.664;2022-12-29T05:54:41;101311.56;;;0.98;91.29
69772;BME280;57046;45.988;18.664;2022-12-29T05:57:06;101330.63;;;1.07;91.47
69772;BME280;57046;45.988;18.664;2022-12-29T05:59:31;101330.16;;;1.10;90.95
69772;BME280;57046;45.988;18.664;2022-12-29T06:01:57;101322.06;;;1.05;90.88
69772;BME280;57046;45.988;18.664;2022-12-29T06:04:22;101325.44;;;1.00;90.84
69772;BME280;57046;45.988;18.664;2022-12-29T06:06:47;101326.03;;;1.02;91.66
69772;BME280;57046;45.988;18.664;2022-12-29T06:09:13;101301.81;;;1.03;91.76
69772;BME280;57046;45.988;18.664;2022-12-29T06:11:38;101322.41;;;1.08;91.47
69772;BME280;57046;45.988;18.664;2022-12-29T06:14:04;101309.00;;;1.03;91.85
69772;BME280;57046;45.988;18.664;2022-12-29T06:16:29;101323.78;;;1.11;91.71
69772;BME280;57046;45.988;18.664;2022-12-29T06:18:54;101335.81;;;1.13;91.41
69772;BME280;57046;45.988;18.664;2022-12-29T06:21:20;101331.78;;;1.11;91.81
69772;BME280;57046;45.988;18.664;2022-12-29T06:23:45;101329.13;;;1.11;92.43
69772;BME280;57046;45.988;18.664;2022-12-29T06:26:10;101318.00;;;1.14;92.59
69772;BME280;57046;45.988;18.664;2022-12-29T06:28:36;101302.38;;;1.06;92.30
69772;BME280;57046;45.988;18.664;2022-12-29T06:31:01;101325.50;;;1.17;92.65
69772;BME280;57046;45.988;18.664;2022-12-29T06:33:26;101314.84;;;1.17;93.15
69772;BME280;57046;45.988;18.664;2022-12-29T06:35:52;101322.69;;;1.23;93.21
69772;BME280;57046;45.988;18.664;2022-12-29T06:38:17;101319.56;;;1.26;93.14
69772;BME280;57046;45.988;18.664;2022-12-29T06:40:43;101330.31;;;1.31;93.28
69772;BME280;57046;45.988;18.664;2022-12-29T06:43:08;101325.56;;;1.33;93.00
69772;BME280;57046;45.988;18.664;2022-12-29T06:45:34;101315.97;;;1.32;93.56
69772;BME280;57046;45.988;18.664;2022-12-29T06:47:59;101318.16;;;1.35;93.61
69772;BME280;57046;45.988;18.664;2022-12-29T06:50:24;101320.81;;;1.35;94.04
69772;BME280;57046;45.988;18.664;2022-12-29T06:52:50;101320.09;;;1.40;94.00
69772;BME280;57046;45.988;18.664;2022-12-29T06:55:15;101318.56;;;1.44;94.32
69772;BME280;57046;45.988;18.664;2022-12-29T06:57:40;101319.50;;;1.49;96.93
69772;BME280;57046;45.988;18.664;2022-12-29T07:00:06;101322.69;;;1.63;98.28
69772;BME280;57046;45.988;18.664;2022-12-29T07:02:32;101301.03;;;1.60;96.44
69772;BME280;57046;45.988;18.664;2022-12-29T07:04:57;101297.56;;;1.59;96.40
69772;BME280;57046;45.988;18.664;2022-12-29T07:07:23;101308.22;;;1.59;96.39
69772;BME280;57046;45.988;18.664;2022-12-29T07:09:48;101300.16;;;1.71;96.60
69772;BME280;57046;45.988;18.664;2022-12-29T07:12:13;101312.59;;;1.82;95.80
69772;BME280;57046;45.988;18.664;2022-12-29T07:14:39;101313.56;;;1.76;95.93
69772;BME280;57046;45.988;18.664;2022-12-29T07:17:04;101335.88;;;1.86;96.59
69772;BME280;57046;45.988;18.664;2022-12-29T07:19:30;101321.25;;;1.89;96.29
69772;BME280;57046;45.988;18.664;2022-12-29T07:21:55;101312.88;;;1.97;96.55
69772;BME280;57046;45.988;18.664;2022-12-29T07:24:20;101311.97;;;2.08;96.46
69772;BME280;57046;45.988;18.664;2022-12-29T07:26:46;101313.91;;;2.13;96.05
69772;BME280;57046;45.988;18.664;2022-12-29T07:29:11;101307.44;;;2.09;95.56
69772;BME280;57046;45.988;18.664;2022-12-29T07:31:37;101316.56;;;2.13;95.96
69772;BME280;57046;45.988;18.664;2022-12-29T07:34:02;101318.25;;;2.19;95.32
69772;BME280;57046;45.988;18.664;2022-12-29T07:36:27;101304.38;;;2.17;94.79
69772;BME280;57046;45.988;18.664;2022-12-29T07:38:53;101306.06;;;2.23;94.77
69772;BME280;57046;45.988;18.664;2022-12-29T07:41:18;101300.25;;;2.26;94.63
69772;BME280;57046;45.988;18.664;2022-12-29T07:43:47;101297.34;;;2.27;94.57
69772;BME280;57046;45.988;18.664;2022-12-29T07:46:12;101308.06;;;2.32;94.62
69772;BME280;57046;45.988;18.664;2022-12-29T07:48:37;101294.44;;;2.29;94.72
69772;BME280;57046;45.988;18.664;2022-12-29T07:51:03;101289.41;;;2.32;94.82
69772;BME280;57046;45.988;18.664;2022-12-29T07:53:29;101301.03;;;2.43;97.94
69772;BME280;57046;45.988;18.664;2022-12-29T07:55:55;101289.75;;;2.74;100.00
69772;BME280;57046;45.988;18.664;2022-12-29T07:58:21;101282.22;;;2.71;100.00
69772;BME280;57046;45.988;18.664;2022-12-29T08:00:46;101285.88;;;2.87;100.00
69772;BME280;57046;45.988;18.664;2022-12-29T08:03:11;101284.72;;;2.78;100.00
69772;BME280;57046;45.988;18.664;2022-12-29T08:05:37;101285.22;;;2.75;99.75
69772;BME280;57046;45.988;18.664;2022-12-29T08:08:02;101301.22;;;2.75;99.46
69772;BME280;57046;45.988;18.664;2022-12-29T08:10:28;101286.34;;;2.79;99.27
69772;BME280;57046;45.988;18.664;2022-12-29T08:12:53;101289.38;;;2.87;98.96
69772;BME280;57046;45.988;18.664;2022-12-29T08:15:19;101299.22;;;2.87;99.02
69772;BME280;57046;45.988;18.664;2022-12-29T08:17:44;101306.81;;;2.95;99.34
69772;BME280;57046;45.988;18.664;2022-12-29T08:20:10;101303.38;;;2.99;99.28
69772;BME280;57046;45.988;18.664;2022-12-29T08:22:35;101292.16;;;2.97;99.81
69772;BME280;57046;45.988;18.664;2022-12-29T08:25:01;101298.75;;;3.12;100.00
69772;BME280;57046;45.988;18.664;2022-12-29T08:27:26;101311.41;;;3.21;100.00
69772;BME280;57046;45.988;18.664;2022-12-29T08:29:52;101313.56;;;3.24;100.00
69772;BME280;57046;45.988;18.664;2022-12-29T08:32:17;101317.03;;;3.46;100.00
69772;BME280;57046;45.988;18.664;2022-12-29T08:34:43;101297.50;;;3.46;100.00
69772;BME280;57046;45.988;18.664;2022-12-29T08:37:08;101314.06;;;3.70;100.00
69772;BME280;57046;45.988;18.664;2022-12-29T08:39:34;101316.75;;;3.75;100.00
69772;BME280;57046;45.988;18.664;2022-12-29T08:41:59;101304.91;;;3.66;100.00
69772;BME280;57046;45.988;18.664;2022-12-29T08:44:24;101306.88;;;3.75;100.00
69772;BME280;57046;45.988;18.664;2022-12-29T08:46:50;101314.81;;;5.33;100.00
69772;BME280;57046;45.988;18.664;2022-12-29T08:49:15;101315.63;;;4.71;100.00
69772;BME280;57046;45.988;18.664;2022-12-29T08:51:40;101314.38;;;4.42;100.00
69772;BME280;57046;45.988;18.664;2022-12-29T08:54:06;101316.69;;;4.28;100.00
69772;BME280;57046;45.988;18.664;2022-12-29T08:56:31;101313.66;;;4.20;100.00
69772;BME280;57046;45.988;18.664;2022-12-29T08:58:57;101322.75;;;4.19;100.00
69772;BME280;57046;45.988;18.664;2022-12-29T09:01:22;101304.84;;;4.19;100.00
69772;BME280;57046;45.988;18.664;2022-12-29T09:03:49;101314.78;;;4.29;100.00
69772;BME280;57046;45.988;18.664;2022-12-29T09:06:15;101308.97;;;4.32;100.00
69772;BME280;57046;45.988;18.664;2022-12-29T09:08:41;101294.50;;;4.33;100.00
69772;BME280;57046;45.988;18.664;2022-12-29T09:11:21;101309.03;;;4.47;100.00
69772;BME280;57046;45.988;18.664;2022-12-29T09:13:47;101313.63;;;4.51;100.00
69772;BME280;57046;45.988;18.664;2022-12-29T09:16:13;101314.22;;;4.63;100.00
69772;BME280;57046;45.988;18.664;2022-12-29T09:18:39;101308.13;;;4.73;100.00
69772;BME280;57046;45.988;18.664;2022-12-29T09:21:06;101301.22;;;4.82;100.00
69772;BME280;57046;45.988;18.664;2022-12-29T09:23:32;101286.22;;;4.81;100.00
69772;BME280;57046;45.988;18.664;2022-12-29T09:25:58;101294.31;;;4.96;100.00
69772;BME280;57046;45.988;18.664;2022-12-29T09:28:24;101296.19;;;4.96;100.00
69772;BME280;57046;45.988;18.664;2022-12-29T09:30:49;101296.19;;;5.01;100.00
69772;BME280;57046;45.988;18.664;2022-12-29T09:33:15;101293.56;;;5.11;100.00
69772;BME280;57046;45.988;18.664;2022-12-29T09:35:45;101285.28;;;5.18;100.00
69772;BME280;57046;45.988;18.664;2022-12-29T09:38:11;101293.28;;;5.07;100.00
69772;BME280;57046;45.988;18.664;2022-12-29T09:40:37;101268.91;;;5.09;100.00
69772;BME280;57046;45.988;18.664;2022-12-29T09:48:21;101261.75;;;5.35;100.00
69772;BME280;57046;45.988;18.664;2022-12-29T09:50:55;101249.97;;;5.36;100.00
69772;BME280;57046;45.988;18.664;2022-12-29T09:53:50;101258.81;;;5.46;100.00
69772;BME280;57046;45.988;18.664;2022-12-29T09:56:19;101245.97;;;5.53;100.00
69772;BME280;57046;45.988;18.664;2022-12-29T09:58:51;101225.59;;;5.62;100.00
69772;BME280;57046;45.988;18.664;2022-12-29T10:01:34;101244.94;;;5.90;100.00
69772;BME280;57046;45.988;18.664;2022-12-29T10:04:01;101248.13;;;6.07;100.00
69772;BME280;57046;45.988;18.664;2022-12-29T10:09:38;101239.81;;;6.29;100.00
69772;BME280;57046;45.988;18.664;2022-12-29T10:18:08;101237.53;;;6.61;100.00
69772;BME280;57046;45.988;18.664;2022-12-29T10:25:41;101225.59;;;6.97;100.00
69772;BME280;57046;45.988;18.664;2022-12-29T10:28:36;101219.06;;;7.08;100.00
69772;BME280;57046;45.988;18.664;2022-12-29T10:31:09;101218.13;;;7.28;99.76
69772;BME280;57046;45.988;18.664;2022-12-29T10:33:41;101206.72;;;7.46;99.58
69772;BME280;57046;45.988;18.664;2022-12-29T10:36:18;101204.75;;;7.57;99.29
69772;BME280;57046;45.988;18.664;2022-12-29T10:38:51;101207.94;;;7.64;98.59
69772;BME280;57046;45.988;18.664;2022-12-29T10:41:28;101223.41;;;7.77;98.34
69772;BME280;57046;45.988;18.664;2022-12-29T10:44:00;101202.38;;;7.84;97.74
69772;BME280;57046;45.988;18.664;2022-12-29T10:46:33;101193.72;;;7.87;98.50
69772;BME280;57046;45.988;18.664;2022-12-29T10:49:00;101196.09;;;7.94;99.39
69772;BME280;57046;45.988;18.664;2022-12-29T10:51:30;101199.59;;;7.94;99.37
69772;BME280;57046;45.988;18.664;2022-12-29T10:54:15;101189.75;;;8.08;99.81
69772;BME280;57046;45.988;18.664;2022-12-29T10:56:47;101198.47;;;8.29;98.82
69772;BME280;57046;45.988;18.664;2022-12-29T10:59:22;101197.28;;;8.40;99.44
69772;BME280;57046;45.988;18.664;2022-12-29T11:07:39;101181.63;;;8.61;98.04
69772;BME280;57046;45.988;18.664;2022-12-29T11:13:10;101193.75;;;8.82;97.83
69772;BME280;57046;45.988;18.664;2022-12-29T11:15:40;101182.13;;;8.87;98.61
69772;BME280;57046;45.988;18.664;2022-12-29T11:18:18;101190.56;;;8.99;98.25
69772;BME280;57046;45.988;18.664;2022-12-29T11:20:43;101187.22;;;9.07;98.00
69772;BME280;57046;45.988;18.664;2022-12-29T11:23:29;101181.47;;;9.13;96.53
69772;BME280;57046;45.988;18.664;2022-12-29T11:26:21;101180.31;;;9.19;96.91
69772;BME280;57046;45.988;18.664;2022-12-29T11:31:42;101157.44;;;9.17;95.95
69772;BME280;57046;45.988;18.664;2022-12-29T11:34:08;101159.97;;;9.27;95.35
69772;BME280;57046;45.988;18.664;2022-12-29T11:36:34;101153.75;;;9.45;95.76
69772;BME280;57046;45.988;18.664;2022-12-29T11:39:01;101143.69;;;9.64;94.48
69772;BME280;57046;45.988;18.664;2022-12-29T11:41:31;101138.94;;;9.75;92.91
69772;BME280;57046;45.988;18.664;2022-12-29T11:43:59;101126.06;;;9.86;92.36
69772;BME280;57046;45.988;18.664;2022-12-29T11:46:32;101140.66;;;10.12;91.50
69772;BME280;57046;45.988;18.664;2022-12-29T11:48:59;101135.66;;;10.60;90.86
69772;BME280;57046;45.988;18.664;2022-12-29T11:51:47;101125.06;;;10.63;90.33
69772;BME280;57046;45.988;18.664;2022-12-29T11:54:30;101127.13;;;10.80;89.17
69772;BME280;57046;45.988;18.664;2022-12-29T11:56:57;101129.34;;;11.00;88.45
69772;BME280;57046;45.988;18.664;2022-12-29T12:01:52;101107.03;;;10.95;86.41
69772;BME280;57046;45.988;18.664;2022-12-29T12:04:21;101123.94;;;11.00;86.03
69772;BME280;57046;45.988;18.664;2022-12-29T12:07:15;101122.22;;;11.04;86.78
69772;BME280;57046;45.988;18.664;2022-12-29T12:12:52;101112.03;;;11.23;88.42
69772;BME280;57046;45.988;18.664;2022-12-29T12:15:42;101110.63;;;11.57;86.97
69772;BME280;57046;45.988;18.664;2022-12-29T12:18:37;101109.19;;;11.73;85.38
69772;BME280;57046;45.988;18.664;2022-12-29T12:21:09;101106.50;;;11.82;85.52
69772;BME280;57046;45.988;18.664;2022-12-29T12:26:20;101111.69;;;12.00;83.71
69772;BME280;57046;45.988;18.664;2022-12-29T12:29:09;101097.69;;;12.07;84.53
69772;BME280;57046;45.988;18.664;2022-12-29T12:31:46;101094.69;;;12.17;83.57
69772;BME280;57046;45.988;18.664;2022-12-29T12:34:20;101093.09;;;12.16;83.43
69772;BME280;57046;45.988;18.664;2022-12-29T12:40:20;101085.13;;;12.19;83.82
69772;BME280;57046;45.988;18.664;2022-12-29T12:45:39;101074.75;;;12.21;84.32
69772;BME280;57046;45.988;18.664;2022-12-29T12:59:16;101058.31;;;12.09;86.18
69772;BME280;57046;45.988;18.664;2022-12-29T13:07:54;101065.56;;;12.31;86.08
69772;BME280;57046;45.988;18.664;2022-12-29T13:10:42;101062.84;;;12.40;86.07
69772;BME280;57046;45.988;18.664;2022-12-29T13:21:57;101064.13;;;12.34;86.88
69772;BME280;57046;45.988;18.664;2022-12-29T13:37:56;101074.31;;;12.37;86.54
69772;BME280;57046;45.988;18.664;2022-12-29T13:40:32;101078.66;;;12.38;87.16
69772;BME280;57046;45.988;18.664;2022-12-29T13:43:00;101074.31;;;12.37;86.84
69772;BME280;57046;45.988;18.664;2022-12-29T13:45:30;101070.34;;;12.34;87.46
69772;BME280;57046;45.988;18.664;2022-12-29T13:48:12;101072.09;;;12.30;87.26
69772;BME280;57046;45.988;18.664;2022-12-29T13:50:40;101087.56;;;12.38;87.41
69772;BME280;57046;45.988;18.664;2022-12-29T13:53:40;101084.53;;;12.40;87.57
69772;BME280;57046;45.988;18.664;2022-12-29T13:56:15;101070.22;;;12.48;87.57
69772;BME280;57046;45.988;18.664;2022-12-29T14:02:25;101077.22;;;12.40;87.44
69772;BME280;57046;45.988;18.664;2022-12-29T14:05:03;101084.72;;;12.52;87.95
69772;BME280;57046;45.988;18.664;2022-12-29T14:07:36;101081.06;;;12.65;87.23
69772;BME280;57046;45.988;18.664;2022-12-29T14:10:03;101059.34;;;12.56;86.43
69772;BME280;57046;45.988;18.664;2022-12-29T14:17:30;101082.16;;;12.47;88.54
69772;BME280;57046;45.988;18.664;2022-12-29T14:19:56;101081.69;;;12.45;88.72
69772;BME280;57046;45.988;18.664;2022-12-29T14:22:26;101090.28;;;12.38;89.33
69772;BME280;57046;45.988;18.664;2022-12-29T14:24:51;101075.94;;;12.38;88.73
69772;BME280;57046;45.988;18.664;2022-12-29T14:29:45;101093.16;;;12.50;87.53
69772;BME280;57046;45.988;18.664;2022-12-29T14:37:31;101080.91;;;12.79;85.91
69772;BME280;57046;45.988;18.664;2022-12-29T14:42:31;101083.13;;;12.76;86.04
69772;BME280;57046;45.988;18.664;2022-12-29T14:45:07;101084.72;;;12.69;86.14
69772;BME280;57046;45.988;18.664;2022-12-29T14:47:46;101088.25;;;12.61;85.66
69772;BME280;57046;45.988;18.664;2022-12-29T14:53:01;101097.69;;;12.15;88.16
69772;BME280;57046;45.988;18.664;2022-12-29T14:55:54;101096.25;;;12.01;88.28
69772;BME280;57046;45.988;18.664;2022-12-29T14:58:31;101096.91;;;11.76;89.15
69772;BME280;57046;45.988;18.664;2022-12-29T15:00:58;101094.06;;;11.81;88.85
69772;BME280;57046;45.988;18.664;2022-12-29T15:03:32;101096.13;;;11.75;89.04
69772;BME280;57046;45.988;18.664;2022-12-29T15:06:04;101101.94;;;11.68;89.75
69772;BME280;57046;45.988;18.664;2022-12-29T15:08:33;101101.13;;;11.59;90.41
69772;BME280;57046;45.988;18.664;2022-12-29T15:11:10;101095.63;;;11.51;90.28
69772;BME280;57046;45.988;18.664;2022-12-29T15:13:39;101100.22;;;11.42;90.25